Time;durP1;ratioP1;P1;durP2;ratioP2;P2;SDS_P1;SDS_P2;PMS_P1;PMS_P2;Temp;Humidity;BMP_temperature;BMP_pressure;BME280_temperature;BME280_humidity;BME280_pressure;Samples;Min_cycle;Max_cycle;Signal;HPM_P1;HPM_P2
2022/11/17 00:01:25;;;;;;;18.47;10.27;;;6.70;99.90;;;;;;5092540;28;20224;-81
2022/11/17 00:03:52;;;;;;;19.27;9.33;;;6.80;99.90;;;;;;5096577;28;20221;-80
2022/11/17 00:06:20;;;;;;;17.87;9.17;;;6.70;99.90;;;;;;5107544;28;20205;-81
2022/11/17 00:08:49;;;;;;;19.30;10.13;;;6.70;99.90;;;;;;5111662;28;20213;-80
2022/11/17 00:11:16;;;;;;;18.07;9.20;;;6.80;99.90;;;;;;5096697;28;20209;-80
2022/11/17 00:16:27;;;;;;;16.93;10.23;;;6.70;99.90;;;;;;5100086;28;20204;-81
2022/11/17 00:21:39;;;;;;;17.20;8.93;;;6.70;99.90;;;;;;5113796;28;20196;-81
2022/11/17 00:24:07;;;;;;;17.57;9.90;;;6.70;99.90;;;;;;5112868;28;20197;-81
2022/11/17 00:27:00;;;;;;;17.70;9.13;;;6.70;99.90;;;;;;5109351;28;20209;-80
2022/11/17 00:29:23;;;;;;;15.40;9.63;;;6.80;99.90;;;;;;5085556;28;20198;-81
2022/11/17 00:34:30;;;;;;;16.50;8.90;;;6.70;99.90;;;;;;5052551;28;20194;-80
2022/11/17 00:36:57;;;;;;;13.17;8.40;;;6.70;99.90;;;;;;5078213;28;20207;-81
2022/11/17 00:39:25;;;;;;;14.17;6.97;;;6.80;99.90;;;;;;5117815;28;20201;-80
2022/11/17 00:41:52;;;;;;;15.23;7.30;;;6.70;99.90;;;;;;5111075;28;20596;-81
2022/11/17 00:44:19;;;;;;;15.73;8.57;;;6.70;99.90;;;;;;5100425;28;20209;-81
2022/11/17 00:46:46;;;;;;;15.27;8.50;;;6.70;99.90;;;;;;5102789;28;20569;-80
2022/11/17 00:49:13;;;;;;;15.30;8.50;;;6.70;99.90;;;;;;5098489;28;20287;-81
2022/11/17 00:51:40;;;;;;;16.00;8.47;;;6.70;99.90;;;;;;5096599;28;20202;-80
2022/11/17 00:54:10;;;;;;;14.93;7.03;;;6.70;99.90;;;;;;5094554;28;20208;-81
2022/11/17 00:56:38;;;;;;;14.60;7.70;;;6.60;99.90;;;;;;5116926;28;20208;-80
2022/11/17 00:59:05;;;;;;;16.03;9.47;;;6.60;99.90;;;;;;5092689;28;20229;-80
2022/11/17 01:01:32;;;;;;;17.50;11.13;;;6.60;99.90;;;;;;5087801;28;20207;-80
2022/11/17 01:04:02;;;;;;;16.93;10.23;;;6.60;99.90;;;;;;5096328;28;20227;-81
2022/11/17 01:06:30;;;;;;;16.07;8.60;;;6.50;99.90;;;;;;5096289;28;20231;-81
2022/11/17 01:08:59;;;;;;;18.63;10.23;;;6.60;99.90;;;;;;5107382;28;20216;-81
2022/11/17 01:11:26;;;;;;;16.80;10.40;;;6.60;99.90;;;;;;5116386;28;20673;-81
2022/11/17 01:13:56;;;;;;;15.57;9.80;;;6.50;99.90;;;;;;5096718;28;20219;-80
2022/11/17 01:16:23;;;;;;;16.07;9.87;;;6.50;99.90;;;;;;5096570;28;20204;-81
2022/11/17 01:18:51;;;;;;;16.90;9.30;;;6.60;99.90;;;;;;5101197;28;20938;-80
2022/11/17 01:21:20;;;;;;;18.17;9.53;;;6.50;99.90;;;;;;5116311;28;20208;-81
2022/11/17 01:23:48;;;;;;;16.80;10.50;;;6.60;99.90;;;;;;5110062;27;20236;-80
2022/11/17 01:26:17;;;;;;;17.83;9.73;;;6.50;99.90;;;;;;5094273;28;20213;-81
2022/11/17 01:28:45;;;;;;;18.13;10.10;;;6.50;99.90;;;;;;5092790;28;20719;-81
2022/11/17 01:31:15;;;;;;;17.50;9.87;;;6.50;99.90;;;;;;5097179;28;20209;-80
2022/11/17 01:33:42;;;;;;;17.03;9.17;;;6.40;99.90;;;;;;5096683;28;20558;-80
2022/11/17 01:36:13;;;;;;;20.60;10.83;;;6.40;99.90;;;;;;5096121;28;20206;-81
2022/11/17 01:38:40;;;;;;;19.53;10.90;;;6.40;99.90;;;;;;5095566;28;20214;-80
2022/11/17 01:41:12;;;;;;;19.10;12.43;;;6.40;99.90;;;;;;5095331;28;20228;-80
2022/11/17 01:43:41;;;;;;;18.80;10.67;;;6.40;99.90;;;;;;5088218;28;20222;-81
2022/11/17 01:46:19;;;;;;;21.77;14.30;;;6.30;99.90;;;;;;5076674;28;20297;-80
2022/11/17 01:48:47;;;;;;;18.60;11.60;;;6.30;99.90;;;;;;5081321;28;20212;-81
2022/11/17 01:51:15;;;;;;;21.80;12.33;;;6.20;99.90;;;;;;5111918;28;20210;-80
2022/11/17 01:53:44;;;;;;;22.87;12.67;;;6.40;99.90;;;;;;5110863;28;20193;-81
2022/11/17 01:56:15;;;;;;;20.33;13.30;;;6.20;99.90;;;;;;5108161;28;20219;-81
2022/11/17 01:58:46;;;;;;;19.83;12.90;;;6.20;99.90;;;;;;5105945;28;20232;-80
2022/11/17 02:01:12;;;;;;;20.30;12.07;;;6.20;99.90;;;;;;5094354;28;20581;-81
2022/11/17 02:03:42;;;;;;;22.23;11.87;;;6.20;99.90;;;;;;5082667;28;20233;-81
2022/11/17 02:06:13;;;;;;;20.10;11.00;;;6.10;99.90;;;;;;5075451;28;20202;-81
2022/11/17 02:08:42;;;;;;;16.90;9.00;;;6.10;99.90;;;;;;5091859;28;20217;-81
2022/11/17 02:11:14;;;;;;;19.50;12.30;;;6.10;99.90;;;;;;5094944;28;20205;-81
2022/11/17 02:13:41;;;;;;;21.30;11.03;;;6.10;99.90;;;;;;5088739;28;20651;-80
2022/11/17 02:16:12;;;;;;;19.93;12.33;;;6.10;99.90;;;;;;5077523;28;20220;-81
2022/11/17 02:18:39;;;;;;;18.83;9.60;;;6.10;99.90;;;;;;5102889;28;20217;-81
2022/11/17 02:21:32;;;;;;;19.43;9.80;;;6.10;99.90;;;;;;5115535;28;20200;-80
2022/11/17 02:24:38;;;;;;;19.23;11.97;;;6.10;99.90;;;;;;5107199;28;20229;-80
2022/11/17 02:27:43;;;;;;;19.53;11.73;;;6.10;99.90;;;;;;5057568;28;20229;-80
2022/11/17 02:30:15;;;;;;;17.57;10.50;;;6.10;99.90;;;;;;5084779;28;20212;-80
2022/11/17 02:32:53;;;;;;;21.33;10.73;;;6.00;99.90;;;;;;5109267;28;20691;-80
2022/11/17 02:35:25;;;;;;;20.77;12.17;;;6.00;99.90;;;;;;5084844;28;20208;-80
2022/11/17 02:38:01;;;;;;;18.53;11.27;;;6.00;99.90;;;;;;5090987;28;20708;-80
2022/11/17 02:40:33;;;;;;;18.43;11.33;;;6.00;99.90;;;;;;5099142;28;20224;-80
2022/11/17 02:45:51;;;;;;;18.80;10.57;;;6.00;99.90;;;;;;5096800;28;20282;-81
2022/11/17 02:48:25;;;;;;;17.83;11.27;;;6.00;99.90;;;;;;5081837;28;20236;-80
2022/11/17 02:50:54;;;;;;;18.00;9.70;;;6.00;99.90;;;;;;5074816;28;20209;-80
2022/11/17 02:53:24;;;;;;;16.80;10.47;;;6.00;99.90;;;;;;5080373;28;20209;-79
2022/11/17 02:55:52;;;;;;;16.20;9.00;;;6.00;99.90;;;;;;5115659;28;20584;-80
2022/11/17 02:58:19;;;;;;;13.27;7.50;;;6.00;99.90;;;;;;5112335;28;20327;-81
2022/11/17 03:01:01;;;;;;;14.67;8.10;;;6.00;99.90;;;;;;5103238;28;20211;-80
2022/11/17 03:03:43;;;;;;;15.30;9.10;;;6.00;99.90;;;;;;5111523;28;20223;-81
2022/11/17 03:06:20;;;;;;;15.63;9.73;;;6.00;99.90;;;;;;5095685;28;20212;-80
2022/11/17 03:08:57;;;;;;;12.97;7.20;;;6.00;99.90;;;;;;5096178;28;20230;-80
2022/11/17 03:11:32;;;;;;;13.13;7.70;;;6.10;99.90;;;;;;5093511;28;20202;-81
2022/11/17 03:14:06;;;;;;;14.03;8.63;;;6.10;99.90;;;;;;5096332;28;20542;-81
2022/11/17 03:16:38;;;;;;;13.07;7.87;;;6.20;99.90;;;;;;5108199;28;20197;-80
2022/11/17 03:19:11;;;;;;;13.10;8.87;;;6.10;99.90;;;;;;5095235;28;20226;-81
2022/11/17 03:21:41;;;;;;;13.57;8.93;;;6.10;99.90;;;;;;5094654;28;20198;-80
2022/11/17 03:24:15;;;;;;;9.60;5.53;;;6.10;99.90;;;;;;5094818;28;20231;-80
2022/11/17 03:26:47;;;;;;;11.93;4.90;;;6.10;99.90;;;;;;5095667;28;20210;-81
2022/11/17 03:29:17;;;;;;;11.00;7.27;;;6.10;99.90;;;;;;5091816;28;20209;-81
2022/11/17 03:31:48;;;;;;;11.53;6.87;;;6.10;99.90;;;;;;5080660;28;20207;-79
2022/11/17 03:34:18;;;;;;;11.67;7.83;;;6.10;99.90;;;;;;5093279;28;20204;-80
2022/11/17 03:36:51;;;;;;;13.23;7.57;;;6.10;99.90;;;;;;5094823;28;20899;-80
2022/11/17 03:39:23;;;;;;;10.67;7.40;;;6.10;99.90;;;;;;5106752;28;20207;-81
2022/11/17 03:41:52;;;;;;;12.50;8.47;;;6.10;99.90;;;;;;5107647;28;20206;-80
2022/11/17 03:44:23;;;;;;;11.23;7.87;;;6.10;99.90;;;;;;5110176;28;20240;-80
2022/11/17 03:46:55;;;;;;;11.93;7.43;;;6.10;99.90;;;;;;5095456;28;20203;-80
2022/11/17 03:49:32;;;;;;;10.93;7.77;;;6.10;99.90;;;;;;5091123;28;20222;-83
2022/11/17 03:52:00;;;;;;;11.67;7.97;;;6.10;99.90;;;;;;5074312;28;20202;-81
2022/11/17 03:54:27;;;;;;;13.17;8.47;;;6.10;99.90;;;;;;5074278;28;20237;-81
2022/11/17 03:56:59;;;;;;;11.90;8.27;;;6.10;99.90;;;;;;5074304;28;20662;-79
2022/11/17 03:59:31;;;;;;;13.33;8.93;;;6.10;99.90;;;;;;5091528;28;20197;-81
2022/11/17 04:02:00;;;;;;;14.07;8.67;;;6.10;99.90;;;;;;5096189;28;20194;-80
2022/11/17 04:05:04;;;;;;;14.23;8.80;;;6.10;99.90;;;;;;5095513;28;20220;-81
2022/11/17 04:07:14;;;;;;;10.87;8.33;;;6.10;99.90;;;;;;5097797;28;20218;-80
2022/11/17 04:09:41;;;;;;;14.40;8.67;;;6.00;99.90;;;;;;5102192;28;20226;-80
2022/11/17 04:17:38;;;;;;;14.30;8.57;;;6.00;99.90;;;;;;5105493;28;20373;-81
2022/11/17 04:20:06;;;;;;;13.50;8.13;;;6.00;99.90;;;;;;5097964;28;20201;-80
2022/11/17 04:22:33;;;;;;;15.33;8.87;;;6.00;99.90;;;;;;5113110;28;20261;-81
2022/11/17 04:25:00;;;;;;;14.43;8.87;;;6.20;99.90;;;;;;5118536;28;20228;-80
2022/11/17 04:30:11;;;;;;;15.10;9.33;;;6.10;99.90;;;;;;5117984;28;20203;-79
2022/11/17 04:32:40;;;;;;;12.80;8.57;;;6.00;99.90;;;;;;5117837;28;20203;-80
2022/11/17 04:35:07;;;;;;;12.97;9.10;;;6.10;99.90;;;;;;5118445;28;20600;-80
2022/11/17 04:37:34;;;;;;;12.70;7.17;;;6.00;99.90;;;;;;5118197;28;20601;-80
2022/11/17 04:40:00;;;;;;;14.10;8.73;;;6.10;99.90;;;;;;5118628;28;20205;-80
2022/11/17 04:42:27;;;;;;;14.97;8.23;;;6.00;99.90;;;;;;5118255;28;20212;-79
2022/11/17 04:44:54;;;;;;;14.87;9.27;;;6.10;99.90;;;;;;5118701;28;20221;-80
2022/11/17 04:47:21;;;;;;;14.53;8.33;;;6.00;99.90;;;;;;5118313;28;20221;-79
2022/11/17 04:49:49;;;;;;;15.27;9.13;;;6.00;99.90;;;;;;5118196;28;20203;-80
2022/11/17 04:52:16;;;;;;;14.00;8.93;;;6.00;99.90;;;;;;5118079;28;20208;-80
2022/11/17 04:54:43;;;;;;;14.83;8.47;;;6.00;99.90;;;;;;5118106;28;20208;-80
2022/11/17 04:57:09;;;;;;;11.03;6.30;;;6.00;99.90;;;;;;5117912;28;20221;-80
2022/11/17 04:59:36;;;;;;;16.27;10.03;;;6.00;99.90;;;;;;5118128;28;20203;-80
2022/11/17 05:02:03;;;;;;;14.07;7.27;;;6.00;99.90;;;;;;5117483;28;20673;-80
2022/11/17 05:07:15;;;;;;;13.53;7.53;;;6.00;99.90;;;;;;5117253;28;20278;-80
2022/11/17 05:09:42;;;;;;;16.53;10.17;;;6.00;99.90;;;;;;5109424;28;20483;-81
2022/11/17 05:14:54;;;;;;;16.23;10.87;;;6.00;99.90;;;;;;5096732;28;20197;-80
2022/11/17 05:17:19;;;;;;;16.03;8.70;;;6.00;99.90;;;;;;5097665;28;20224;-80
2022/11/17 05:19:47;;;;;;;14.00;8.47;;;6.00;99.90;;;;;;5096899;28;20574;-80
2022/11/17 05:25:03;;;;;;;13.53;8.77;;;5.90;99.90;;;;;;5097286;28;20224;-80
2022/11/17 05:27:30;;;;;;;15.07;10.27;;;6.00;99.90;;;;;;5096399;28;20237;-80
2022/11/17 05:29:57;;;;;;;14.73;9.40;;;6.00;99.90;;;;;;5097016;28;20201;-80
2022/11/17 05:32:23;;;;;;;16.03;7.13;;;6.00;99.90;;;;;;5096402;28;20356;-79
2022/11/17 05:34:50;;;;;;;13.57;8.13;;;6.00;99.90;;;;;;5096507;28;20206;-80
2022/11/17 05:37:18;;;;;;;11.97;9.00;;;6.00;99.90;;;;;;5097031;28;20228;-80
2022/11/17 05:39:45;;;;;;;13.73;8.33;;;6.00;99.90;;;;;;5097099;28;20212;-80
2022/11/17 05:42:12;;;;;;;12.43;8.20;;;6.00;99.90;;;;;;5096344;28;20197;-80
2022/11/17 05:44:39;;;;;;;12.83;9.00;;;6.00;99.90;;;;;;5095076;28;20224;-80
2022/11/17 05:47:05;;;;;;;13.33;8.93;;;6.00;99.90;;;;;;5095202;28;20685;-79
2022/11/17 05:49:32;;;;;;;14.27;9.00;;;6.00;99.90;;;;;;5096599;28;20198;-80
2022/11/17 05:51:59;;;;;;;13.17;8.27;;;6.10;99.90;;;;;;5095802;28;20197;-80
2022/11/17 05:54:27;;;;;;;13.10;6.80;;;6.00;99.90;;;;;;5096482;28;20190;-80
2022/11/17 05:56:59;;;;;;;12.17;8.20;;;6.00;99.90;;;;;;5091770;28;20194;-80
2022/11/17 05:59:30;;;;;;;11.47;8.00;;;6.00;99.90;;;;;;5093942;28;20202;-80
2022/11/17 06:02:02;;;;;;;12.07;7.67;;;6.00;99.90;;;;;;5095780;28;20190;-80
2022/11/17 06:04:29;;;;;;;13.43;8.13;;;6.00;99.90;;;;;;5075872;28;20229;-80
2022/11/17 06:06:58;;;;;;;11.80;7.73;;;6.00;99.90;;;;;;5091469;28;20216;-80
2022/11/17 06:09:26;;;;;;;11.73;8.07;;;6.00;99.90;;;;;;5083329;28;20213;-80
2022/11/17 06:11:53;;;;;;;10.53;6.13;;;6.00;99.90;;;;;;5075457;28;20581;-80
2022/11/17 06:14:20;;;;;;;14.93;9.00;;;6.00;99.90;;;;;;5074333;28;20198;-80
2022/11/17 06:16:50;;;;;;;13.57;7.97;;;6.00;99.90;;;;;;5074947;28;20202;-80
2022/11/17 06:19:20;;;;;;;12.70;8.53;;;6.00;99.90;;;;;;5075804;28;20212;-80
2022/11/17 06:21:47;;;;;;;15.20;9.97;;;6.00;99.90;;;;;;5094981;28;20681;-81
2022/11/17 06:24:14;;;;;;;14.53;7.97;;;5.90;99.90;;;;;;5095268;28;20225;-80
2022/11/17 06:26:42;;;;;;;14.83;9.33;;;5.90;99.90;;;;;;5095442;28;20213;-79
2022/11/17 06:29:11;;;;;;;14.07;9.23;;;5.80;99.90;;;;;;5094328;28;20206;-80
2022/11/17 06:31:39;;;;;;;14.67;9.60;;;5.80;99.90;;;;;;5095237;28;20650;-80
2022/11/17 06:34:06;;;;;;;14.83;6.97;;;5.80;99.90;;;;;;5094684;28;20212;-80
2022/11/17 06:36:33;;;;;;;13.97;7.60;;;5.80;99.90;;;;;;5076189;28;20207;-80
2022/11/17 06:39:00;;;;;;;13.93;8.87;;;5.80;99.90;;;;;;5076098;28;20301;-80
2022/11/17 06:41:26;;;;;;;13.87;8.07;;;5.80;99.90;;;;;;5095513;28;20205;-80
2022/11/17 06:43:55;;;;;;;14.30;8.13;;;5.80;99.90;;;;;;5086770;28;20234;-80
2022/11/17 06:46:21;;;;;;;13.30;9.23;;;5.70;99.90;;;;;;5088969;28;20209;-80
2022/11/17 06:48:48;;;;;;;14.73;9.03;;;5.70;99.90;;;;;;5093566;28;20213;-80
2022/11/17 06:51:15;;;;;;;18.17;9.83;;;5.60;99.90;;;;;;5094341;28;20201;-79
2022/11/17 06:53:42;;;;;;;16.13;9.37;;;5.60;99.90;;;;;;5095067;28;20194;-80
2022/11/17 06:56:09;;;;;;;18.10;11.80;;;5.60;99.90;;;;;;5094484;28;20214;-79
2022/11/17 06:58:37;;;;;;;16.83;10.50;;;5.60;99.90;;;;;;5095077;28;20261;-80
2022/11/17 07:01:07;;;;;;;18.37;11.10;;;5.60;99.90;;;;;;5094250;28;20207;-80
2022/11/17 07:03:36;;;;;;;16.83;9.67;;;5.60;99.90;;;;;;5093907;28;20212;-80
2022/11/17 07:06:04;;;;;;;15.90;9.97;;;5.60;99.90;;;;;;5094315;28;20624;-79
2022/11/17 07:08:31;;;;;;;14.27;8.37;;;5.60;99.90;;;;;;5078171;28;20232;-80
2022/11/17 07:11:02;;;;;;;13.43;8.40;;;5.60;99.90;;;;;;5074178;28;20202;-80
2022/11/17 07:13:29;;;;;;;13.57;8.13;;;5.50;99.90;;;;;;5090216;28;20213;-80
2022/11/17 07:16:01;;;;;;;14.60;8.83;;;5.70;99.90;;;;;;5079232;28;20696;-80
2022/11/17 07:18:29;;;;;;;15.03;9.70;;;5.50;99.90;;;;;;5075637;28;20225;-81
2022/11/17 07:20:59;;;;;;;17.03;9.63;;;5.50;99.90;;;;;;5088094;28;20206;-80
2022/11/17 07:23:26;;;;;;;15.90;8.90;;;5.40;99.90;;;;;;5092396;28;20205;-79
2022/11/17 07:25:53;;;;;;;16.87;7.73;;;5.30;99.90;;;;;;5090074;28;20681;-80
2022/11/17 07:28:20;;;;;;;16.50;9.73;;;5.30;99.90;;;;;;5092621;28;20217;-79
2022/11/17 07:30:47;;;;;;;18.70;10.33;;;5.20;99.90;;;;;;5074711;28;20228;-79
2022/11/17 07:33:13;;;;;;;16.23;8.47;;;5.20;99.90;;;;;;5073475;28;20730;-79
2022/11/17 07:35:41;;;;;;;15.23;9.00;;;5.20;99.90;;;;;;5072607;28;20256;-80
2022/11/17 07:38:08;;;;;;;18.53;9.43;;;5.30;99.90;;;;;;5075037;28;20237;-80
2022/11/17 07:40:35;;;;;;;15.90;9.03;;;5.20;99.90;;;;;;5081134;28;20219;-80
2022/11/17 07:43:02;;;;;;;17.07;10.23;;;5.20;99.90;;;;;;5084960;28;20242;-79
2022/11/17 07:45:29;;;;;;;17.20;9.37;;;5.20;99.90;;;;;;5078093;28;20228;-80
2022/11/17 07:47:56;;;;;;;15.97;9.20;;;5.10;99.90;;;;;;5078652;28;20595;-80
2022/11/17 07:50:25;;;;;;;17.00;8.10;;;5.20;99.90;;;;;;5076550;28;20209;-79
2022/11/17 07:52:55;;;;;;;18.73;9.70;;;5.10;99.90;;;;;;5081397;28;20205;-80
2022/11/17 07:55:23;;;;;;;17.53;9.73;;;5.00;99.90;;;;;;5097587;28;20194;-79
2022/11/17 07:57:55;;;;;;;17.83;9.00;;;4.90;99.90;;;;;;5081150;28;20236;-79
2022/11/17 08:00:22;;;;;;;16.23;9.47;;;4.90;99.90;;;;;;5078284;28;20206;-79
2022/11/17 08:02:49;;;;;;;14.63;7.87;;;4.80;99.90;;;;;;5079044;28;20202;-79
2022/11/17 08:05:16;;;;;;;17.07;9.30;;;4.90;99.90;;;;;;5097455;28;20217;-80
2022/11/17 08:07:43;;;;;;;17.37;9.67;;;4.90;99.90;;;;;;5094438;28;20213;-80
2022/11/17 08:10:11;;;;;;;17.53;10.00;;;4.80;99.90;;;;;;5098410;28;20205;-79
2022/11/17 08:12:38;;;;;;;16.50;8.37;;;4.80;99.90;;;;;;5096299;28;20201;-80
2022/11/17 08:15:06;;;;;;;15.47;8.27;;;4.80;99.90;;;;;;5098545;28;20202;-80
2022/11/17 08:17:32;;;;;;;16.13;8.60;;;4.80;99.90;;;;;;5098486;28;20232;-80
2022/11/17 08:19:59;;;;;;;13.87;8.07;;;4.80;99.90;;;;;;5097941;28;20205;-80
2022/11/17 08:22:26;;;;;;;13.30;7.37;;;4.90;99.90;;;;;;5090419;28;20206;-79
2022/11/17 08:24:53;;;;;;;14.70;8.70;;;4.90;99.90;;;;;;5077719;28;20222;-79
2022/11/17 08:27:21;;;;;;;16.90;9.50;;;4.90;99.90;;;;;;5078191;28;20236;-79
2022/11/17 08:29:48;;;;;;;14.93;7.57;;;4.90;99.90;;;;;;5077217;28;20224;-80
2022/11/17 08:32:15;;;;;;;14.27;7.80;;;4.90;99.90;;;;;;5077317;28;20218;-79
2022/11/17 08:34:41;;;;;;;14.57;7.20;;;5.00;99.90;;;;;;5083223;28;20214;-80
2022/11/17 08:37:08;;;;;;;14.33;7.90;;;5.00;99.90;;;;;;5097375;28;20221;-80
2022/11/17 08:39:35;;;;;;;12.80;6.93;;;5.10;99.90;;;;;;5097662;28;20219;-80
2022/11/17 08:42:02;;;;;;;15.47;8.43;;;5.10;99.90;;;;;;5095903;28;20202;-80
2022/11/17 08:44:30;;;;;;;15.30;8.40;;;5.20;99.90;;;;;;5096247;28;20232;-80
2022/11/17 08:46:57;;;;;;;15.90;8.73;;;5.20;99.90;;;;;;5091866;28;20190;-80
2022/11/17 08:49:23;;;;;;;13.47;8.17;;;5.20;99.90;;;;;;5095896;28;20197;-80
2022/11/17 08:51:50;;;;;;;13.80;8.30;;;5.20;99.90;;;;;;5096121;28;20189;-79
2022/11/17 08:54:17;;;;;;;14.70;7.07;;;5.30;99.90;;;;;;5097322;28;20208;-80
2022/11/17 08:56:45;;;;;;;14.43;8.23;;;5.20;99.90;;;;;;5095703;28;20208;-80
2022/11/17 08:59:12;;;;;;;14.60;8.07;;;5.30;99.90;;;;;;5097039;28;20665;-80
2022/11/17 09:01:40;;;;;;;12.07;6.60;;;5.30;99.90;;;;;;5097451;28;20572;-80
2022/11/17 09:04:07;;;;;;;13.17;6.73;;;5.20;99.90;;;;;;5086856;28;20607;-80
2022/11/17 09:06:34;;;;;;;12.63;7.00;;;5.20;99.90;;;;;;5078402;28;20212;-80
2022/11/17 09:09:01;;;;;;;13.33;6.50;;;5.30;99.90;;;;;;5096875;28;20244;-80
2022/11/17 09:11:27;;;;;;;13.33;6.37;;;5.20;99.90;;;;;;5097053;28;20260;-80
2022/11/17 09:13:54;;;;;;;14.30;7.13;;;5.30;99.90;;;;;;5098102;28;20212;-79
2022/11/17 09:16:22;;;;;;;12.27;7.03;;;5.30;99.90;;;;;;5095168;28;20198;-79
2022/11/17 09:18:55;;;;;;;12.70;7.70;;;5.30;99.90;;;;;;5095481;28;20230;-80
2022/11/17 09:21:22;;;;;;;13.50;7.60;;;5.30;99.90;;;;;;5095450;28;20247;-79
2022/11/17 09:23:48;;;;;;;12.10;6.70;;;5.30;99.90;;;;;;5097070;28;20284;-79
2022/11/17 09:26:16;;;;;;;10.83;6.50;;;5.30;99.90;;;;;;5093368;28;20229;-80
2022/11/17 09:28:43;;;;;;;11.00;5.20;;;5.30;99.90;;;;;;5086596;28;20225;-79
2022/11/17 09:31:12;;;;;;;12.67;7.53;;;5.30;99.90;;;;;;5092347;28;20220;-79
2022/11/17 09:33:39;;;;;;;13.43;7.73;;;5.30;99.90;;;;;;5096158;28;20205;-79
2022/11/17 09:36:08;;;;;;;12.53;6.53;;;5.40;99.90;;;;;;5095314;28;20198;-80
2022/11/17 09:38:35;;;;;;;11.83;6.93;;;5.40;99.90;;;;;;5092053;28;20608;-80
2022/11/17 09:41:11;;;;;;;12.90;7.10;;;5.40;99.90;;;;;;5096267;28;20212;-79
2022/11/17 09:43:42;;;;;;;11.33;6.67;;;5.40;99.90;;;;;;5096044;28;20208;-80
2022/11/17 09:46:14;;;;;;;11.60;6.73;;;5.40;99.90;;;;;;5097202;28;20245;-79
2022/11/17 09:48:47;;;;;;;12.57;7.03;;;5.40;99.90;;;;;;5095335;28;20225;-79
2022/11/17 09:51:20;;;;;;;12.70;7.53;;;5.50;99.90;;;;;;5095962;28;20198;-79
2022/11/17 09:53:54;;;;;;;11.07;6.97;;;5.50;99.90;;;;;;5096576;28;20197;-79
2022/11/17 09:56:21;;;;;;;11.30;7.17;;;5.50;99.90;;;;;;5094845;28;20204;-80
2022/11/17 09:58:52;;;;;;;14.13;7.77;;;5.50;99.90;;;;;;5095901;28;20225;-80
2022/11/17 10:01:21;;;;;;;10.17;5.03;;;5.60;99.90;;;;;;5094890;28;20197;-80
2022/11/17 10:03:50;;;;;;;8.53;5.90;;;5.50;99.90;;;;;;5095194;28;20201;-79
2022/11/17 10:06:21;;;;;;;9.87;5.93;;;5.60;99.90;;;;;;5096496;28;20217;-79
2022/11/17 10:08:59;;;;;;;9.70;5.30;;;5.60;99.90;;;;;;5096475;28;20226;-80
2022/11/17 10:11:32;;;;;;;7.43;5.10;;;5.60;99.90;;;;;;5095586;28;20205;-79
2022/11/17 10:14:02;;;;;;;10.77;6.43;;;5.60;99.90;;;;;;5096328;28;20208;-79
2022/11/17 10:16:29;;;;;;;9.40;5.93;;;5.70;99.90;;;;;;5096385;28;20210;-80
2022/11/17 10:18:57;;;;;;;8.13;5.07;;;5.70;99.90;;;;;;5094570;28;20230;-80
2022/11/17 10:21:29;;;;;;;10.47;6.13;;;5.70;99.90;;;;;;5096307;28;20209;-80
2022/11/17 10:23:58;;;;;;;8.53;4.90;;;5.70;99.90;;;;;;5096547;28;20204;-80
2022/11/17 10:26:25;;;;;;;10.40;5.03;;;5.70;99.90;;;;;;5096546;28;20715;-80
2022/11/17 10:29:06;;;;;;;7.93;5.00;;;5.70;99.90;;;;;;5094588;28;20237;-79
2022/11/17 10:31:41;;;;;;;8.20;5.90;;;5.70;99.90;;;;;;5095837;28;20201;-81
2022/11/17 10:34:10;;;;;;;8.90;4.10;;;5.70;99.90;;;;;;5094966;28;20602;-80
2022/11/17 10:36:46;;;;;;;8.77;4.97;;;5.70;99.90;;;;;;5095835;28;20194;-80
2022/11/17 10:39:32;;;;;;;7.63;4.80;;;5.70;99.90;;;;;;5095046;28;20198;-78
2022/11/17 10:42:01;;;;;;;7.40;5.00;;;5.70;99.90;;;;;;5093455;28;20224;-81
2022/11/17 10:44:30;;;;;;;8.63;5.57;;;5.70;99.90;;;;;;5095833;28;20202;-80
2022/11/17 10:46:58;;;;;;;7.70;5.10;;;5.70;99.90;;;;;;5095827;28;20657;-79
2022/11/17 10:49:27;;;;;;;9.97;5.77;;;5.60;99.90;;;;;;5095049;28;20227;-80
2022/11/17 10:52:16;;;;;;;9.10;5.93;;;5.70;99.90;;;;;;5094103;28;20220;-80
2022/11/17 10:54:48;;;;;;;8.13;5.47;;;5.70;99.90;;;;;;5094458;28;20272;-79
2022/11/17 10:57:20;;;;;;;8.00;4.70;;;5.70;99.90;;;;;;5094772;28;20308;-79
2022/11/17 10:59:50;;;;;;;7.67;4.60;;;5.70;99.90;;;;;;5095147;28;20205;-80
2022/11/17 11:02:27;;;;;;;9.67;5.23;;;5.70;99.90;;;;;;5095173;28;20201;-80
2022/11/17 11:05:06;;;;;;;6.70;3.93;;;5.70;99.90;;;;;;5095078;28;20689;-81
2022/11/17 11:07:35;;;;;;;8.10;5.60;;;5.70;99.90;;;;;;5095230;28;20222;-80
2022/11/17 11:10:14;;;;;;;9.07;5.10;;;5.80;99.90;;;;;;5095603;28;20277;-79
2022/11/17 11:12:46;;;;;;;6.13;4.47;;;5.70;99.90;;;;;;5094460;28;20268;-80
2022/11/17 11:15:19;;;;;;;7.40;4.43;;;5.70;99.90;;;;;;5096689;28;20281;-80
2022/11/17 11:17:45;;;;;;;7.57;4.90;;;5.70;99.90;;;;;;5094392;28;20233;-80
2022/11/17 11:20:14;;;;;;;7.90;5.53;;;5.70;99.90;;;;;;5095075;28;20201;-79
2022/11/17 11:22:48;;;;;;;6.57;4.53;;;5.80;99.90;;;;;;5094793;28;20230;-80
2022/11/17 11:25:30;;;;;;;6.80;5.03;;;5.90;99.90;;;;;;5095509;28;20306;-80
2022/11/17 11:28:17;;;;;;;7.63;5.20;;;5.90;99.90;;;;;;5094771;28;20221;-80
2022/11/17 11:30:54;;;;;;;7.77;4.83;;;5.90;99.90;;;;;;5095451;28;20205;-81
2022/11/17 11:33:31;;;;;;;7.00;4.90;;;5.90;99.90;;;;;;5094500;28;20699;-79
2022/11/17 11:36:15;;;;;;;8.30;5.60;;;5.90;99.90;;;;;;5095086;28;20205;-80
2022/11/17 11:38:52;;;;;;;6.77;4.97;;;5.90;99.90;;;;;;5095288;28;20221;-80
2022/11/17 11:41:39;;;;;;;7.20;5.30;;;5.90;99.90;;;;;;5095444;28;20227;-80
2022/11/17 11:44:26;;;;;;;6.90;5.23;;;6.00;99.90;;;;;;5095385;28;20201;-80
2022/11/17 11:46:59;;;;;;;8.60;5.23;;;6.00;99.90;;;;;;5094761;28;20610;-80
2022/11/17 11:49:33;;;;;;;8.57;5.07;;;6.00;99.90;;;;;;5095733;28;20210;-79
2022/11/17 11:52:02;;;;;;;6.53;4.23;;;6.00;99.90;;;;;;5095150;28;20288;-80
2022/11/17 11:54:36;;;;;;;7.50;5.87;;;6.00;99.90;;;;;;5095066;28;20216;-80
2022/11/17 11:57:04;;;;;;;7.83;5.43;;;6.00;99.90;;;;;;5094770;28;20225;-80
2022/11/17 11:59:40;;;;;;;7.93;4.50;;;6.00;99.90;;;;;;5095060;28;20664;-80
2022/11/17 12:02:20;;;;;;;6.83;4.67;;;6.10;99.90;;;;;;5094909;28;20212;-79
2022/11/17 12:04:55;;;;;;;6.37;4.80;;;6.10;99.90;;;;;;5095492;28;20205;-80
2022/11/17 12:07:28;;;;;;;5.67;3.07;;;6.10;99.90;;;;;;5094614;28;20596;-81
2022/11/17 12:10:05;;;;;;;6.57;4.73;;;6.10;99.90;;;;;;5095520;28;20601;-80
2022/11/17 12:12:35;;;;;;;4.03;3.20;;;6.10;99.90;;;;;;5094315;28;20205;-80
2022/11/17 12:15:33;;;;;;;6.53;4.00;;;6.10;99.90;;;;;;5094674;28;20212;-79
2022/11/17 12:18:02;;;;;;;5.83;4.57;;;6.20;99.90;;;;;;5089166;28;20232;-79
2022/11/17 12:20:54;;;;;;;6.00;4.70;;;6.20;99.90;;;;;;5095317;28;20212;-80
2022/11/17 12:23:57;;;;;;;5.13;4.27;;;6.20;99.90;;;;;;5090679;28;20206;-80
2022/11/17 12:26:28;;;;;;;4.77;4.17;;;6.20;99.90;;;;;;5095874;28;20225;-80
2022/11/17 12:29:30;;;;;;;6.77;4.70;;;6.20;99.90;;;;;;5098203;28;20221;-80
2022/11/17 12:31:59;;;;;;;5.23;3.87;;;6.20;99.90;;;;;;5095632;28;20223;-80
2022/11/17 12:34:29;;;;;;;5.37;3.80;;;6.20;99.90;;;;;;5098446;28;20190;-80
2022/11/17 12:37:21;;;;;;;6.00;3.83;;;6.20;99.90;;;;;;5096300;28;21112;-80
2022/11/17 12:39:56;;;;;;;7.50;4.30;;;6.30;99.90;;;;;;5106082;28;20292;-80
2022/11/17 12:42:25;;;;;;;7.20;4.43;;;6.20;99.90;;;;;;5117296;28;20196;-80
2022/11/17 12:44:57;;;;;;;4.60;4.17;;;6.20;99.90;;;;;;5118281;28;20203;-80
2022/11/17 12:47:26;;;;;;;6.00;4.20;;;6.20;99.90;;;;;;5117965;28;20225;-81
2022/11/17 12:50:34;;;;;;;4.73;3.97;;;6.30;99.90;;;;;;5118441;28;20205;-81
2022/11/17 12:53:30;;;;;;;4.87;3.70;;;6.20;99.90;;;;;;5114807;28;20895;-81
2022/11/17 12:56:27;;;;;;;5.60;3.93;;;6.30;99.90;;;;;;5112003;28;20201;-80
2022/11/17 12:59:23;;;;;;;3.73;3.17;;;6.30;99.90;;;;;;5116861;28;20217;-80
2022/11/17 13:01:59;;;;;;;5.47;4.30;;;6.30;99.90;;;;;;5070882;28;20200;-80
2022/11/17 13:04:40;;;;;;;5.23;4.20;;;6.30;99.90;;;;;;5118790;28;20200;-81
2022/11/17 13:07:16;;;;;;;5.90;4.60;;;6.30;99.90;;;;;;5119287;28;20225;-80
2022/11/17 13:09:43;;;;;;;5.90;4.80;;;6.30;99.90;;;;;;5108353;28;20315;-81
2022/11/17 13:12:11;;;;;;;5.13;4.50;;;6.30;99.90;;;;;;5119790;28;20232;-81
2022/11/17 13:14:52;;;;;;;6.77;4.47;;;6.40;99.90;;;;;;5117822;28;20208;-82
2022/11/17 13:17:21;;;;;;;5.17;4.57;;;6.30;99.90;;;;;;5118366;28;20217;-81
2022/11/17 13:19:57;;;;;;;5.23;4.10;;;6.40;99.90;;;;;;5105229;28;20202;-81
2022/11/17 13:22:24;;;;;;;5.77;4.13;;;6.40;99.90;;;;;;5095198;28;20189;-81
2022/11/17 13:24:52;;;;;;;4.33;3.63;;;6.40;99.90;;;;;;5097617;28;20574;-80
2022/11/17 13:27:22;;;;;;;5.87;3.90;;;6.40;99.90;;;;;;5094817;28;20313;-79
2022/11/17 13:29:51;;;;;;;5.80;4.00;;;6.40;99.90;;;;;;5098909;28;20224;-79
2022/11/17 13:32:20;;;;;;;4.60;3.37;;;6.40;99.90;;;;;;5101645;28;20210;-79
2022/11/17 13:34:49;;;;;;;4.57;3.97;;;6.50;99.90;;;;;;5100329;28;20674;-80